sensor_id;sensor_type;location;lat;lon;timestamp;P1;durP1;ratioP1;P2;durP2;ratioP2
73550;SDS011;61816;53.582;10.096;2023-04-30T00:01:57;28.17;;;6.03;;
73550;SDS011;61816;53.582;10.096;2023-04-30T00:04:23;20.77;;;4.55;;
73550;SDS011;61816;53.582;10.096;2023-04-30T00:06:48;30.05;;;5.30;;
73550;SDS011;61816;53.582;10.096;2023-04-30T00:09:14;29.92;;;5.60;;
73550;SDS011;61816;53.582;10.096;2023-04-30T00:11:39;21.75;;;5.25;;
73550;SDS011;61816;53.582;10.096;2023-04-30T00:14:05;30.92;;;6.53;;
73550;SDS011;61816;53.582;10.096;2023-04-30T00:16:30;29.15;;;5.15;;
73550;SDS011;61816;53.582;10.096;2023-04-30T00:18:56;24.73;;;5.63;;
73550;SDS011;61816;53.582;10.096;2023-04-30T00:21:21;24.45;;;6.35;;
73550;SDS011;61816;53.582;10.096;2023-04-30T00:23:46;29.95;;;5.80;;
73550;SDS011;61816;53.582;10.096;2023-04-30T00:26:11;30.10;;;6.53;;
73550;SDS011;61816;53.582;10.096;2023-04-30T00:28:37;27.73;;;6.53;;
73550;SDS011;61816;53.582;10.096;2023-04-30T00:31:02;25.98;;;5.65;;
73550;SDS011;61816;53.582;10.096;2023-04-30T00:33:30;41.42;;;7.30;;
73550;SDS011;61816;53.582;10.096;2023-04-30T00:35:56;26.83;;;5.78;;
73550;SDS011;61816;53.582;10.096;2023-04-30T00:38:21;29.08;;;6.05;;
73550;SDS011;61816;53.582;10.096;2023-04-30T00:40:47;19.88;;;5.25;;
73550;SDS011;61816;53.582;10.096;2023-04-30T00:43:13;36.95;;;6.63;;
73550;SDS011;61816;53.582;10.096;2023-04-30T00:45:38;22.95;;;6.13;;
73550;SDS011;61816;53.582;10.096;2023-04-30T00:48:03;23.13;;;5.82;;
73550;SDS011;61816;53.582;10.096;2023-04-30T00:50:29;31.30;;;6.53;;
73550;SDS011;61816;53.582;10.096;2023-04-30T00:52:54;26.80;;;7.07;;
73550;SDS011;61816;53.582;10.096;2023-04-30T00:55:20;30.73;;;5.90;;
73550;SDS011;61816;53.582;10.096;2023-04-30T00:57:45;32.53;;;7.05;;
73550;SDS011;61816;53.582;10.096;2023-04-30T01:00:11;20.05;;;6.07;;
73550;SDS011;61816;53.582;10.096;2023-04-30T01:02:38;21.27;;;6.80;;
73550;SDS011;61816;53.582;10.096;2023-04-30T01:05:04;18.92;;;6.32;;
73550;SDS011;61816;53.582;10.096;2023-04-30T01:07:30;21.80;;;6.50;;
73550;SDS011;61816;53.582;10.096;2023-04-30T01:09:56;36.60;;;7.80;;
73550;SDS011;61816;53.582;10.096;2023-04-30T01:12:28;25.42;;;5.88;;
73550;SDS011;61816;53.582;10.096;2023-04-30T01:15:09;29.10;;;6.90;;
73550;SDS011;61816;53.582;10.096;2023-04-30T01:17:53;21.85;;;5.82;;
73550;SDS011;61816;53.582;10.096;2023-04-30T01:20:21;27.08;;;6.68;;
73550;SDS011;61816;53.582;10.096;2023-04-30T01:25:33;25.50;;;5.80;;
73550;SDS011;61816;53.582;10.096;2023-04-30T01:28:08;22.55;;;5.78;;
73550;SDS011;61816;53.582;10.096;2023-04-30T01:30:38;22.02;;;6.57;;
73550;SDS011;61816;53.582;10.096;2023-04-30T01:33:08;33.78;;;6.28;;
73550;SDS011;61816;53.582;10.096;2023-04-30T01:38:40;28.45;;;6.93;;
73550;SDS011;61816;53.582;10.096;2023-04-30T01:44:10;24.58;;;6.05;;
73550;SDS011;61816;53.582;10.096;2023-04-30T01:46:53;20.98;;;5.60;;
73550;SDS011;61816;53.582;10.096;2023-04-30T01:49:30;25.05;;;8.07;;
73550;SDS011;61816;53.582;10.096;2023-04-30T01:52:05;23.88;;;5.50;;
73550;SDS011;61816;53.582;10.096;2023-04-30T01:57:12;21.75;;;6.95;;
73550;SDS011;61816;53.582;10.096;2023-04-30T01:59:42;37.63;;;6.38;;
73550;SDS011;61816;53.582;10.096;2023-04-30T02:02:07;26.40;;;5.65;;
73550;SDS011;61816;53.582;10.096;2023-04-30T02:04:33;25.25;;;5.95;;
73550;SDS011;61816;53.582;10.096;2023-04-30T02:06:58;21.40;;;5.82;;
73550;SDS011;61816;53.582;10.096;2023-04-30T02:09:24;26.48;;;7.97;;
73550;SDS011;61816;53.582;10.096;2023-04-30T02:11:49;18.15;;;5.90;;
73550;SDS011;61816;53.582;10.096;2023-04-30T02:14:15;18.27;;;5.72;;
73550;SDS011;61816;53.582;10.096;2023-04-30T02:16:40;34.58;;;6.57;;
73550;SDS011;61816;53.582;10.096;2023-04-30T02:19:06;27.50;;;6.60;;
73550;SDS011;61816;53.582;10.096;2023-04-30T02:21:31;40.55;;;8.57;;
73550;SDS011;61816;53.582;10.096;2023-04-30T02:23:57;19.75;;;6.50;;
73550;SDS011;61816;53.582;10.096;2023-04-30T02:26:22;24.40;;;6.40;;
73550;SDS011;61816;53.582;10.096;2023-04-30T02:28:47;35.20;;;6.82;;
73550;SDS011;61816;53.582;10.096;2023-04-30T02:31:13;27.55;;;7.13;;
73550;SDS011;61816;53.582;10.096;2023-04-30T02:33:38;29.23;;;7.10;;
73550;SDS011;61816;53.582;10.096;2023-04-30T02:36:03;30.88;;;7.57;;
73550;SDS011;61816;53.582;10.096;2023-04-30T02:38:29;20.02;;;6.32;;
73550;SDS011;61816;53.582;10.096;2023-04-30T02:40:54;32.20;;;6.68;;
73550;SDS011;61816;53.582;10.096;2023-04-30T02:43:20;33.17;;;7.78;;
73550;SDS011;61816;53.582;10.096;2023-04-30T02:45:45;29.50;;;6.75;;
73550;SDS011;61816;53.582;10.096;2023-04-30T02:48:10;26.42;;;6.32;;
73550;SDS011;61816;53.582;10.096;2023-04-30T02:50:35;28.35;;;6.38;;
73550;SDS011;61816;53.582;10.096;2023-04-30T02:53:01;30.40;;;7.45;;
73550;SDS011;61816;53.582;10.096;2023-04-30T02:55:26;23.77;;;7.10;;
73550;SDS011;61816;53.582;10.096;2023-04-30T02:57:52;29.17;;;7.32;;
73550;SDS011;61816;53.582;10.096;2023-04-30T03:00:17;35.35;;;7.85;;
73550;SDS011;61816;53.582;10.096;2023-04-30T03:02:43;17.52;;;5.85;;
73550;SDS011;61816;53.582;10.096;2023-04-30T03:05:08;26.67;;;7.00;;
73550;SDS011;61816;53.582;10.096;2023-04-30T03:07:34;26.55;;;7.43;;
73550;SDS011;61816;53.582;10.096;2023-04-30T03:10:00;26.95;;;6.88;;
73550;SDS011;61816;53.582;10.096;2023-04-30T03:12:25;27.25;;;6.60;;
73550;SDS011;61816;53.582;10.096;2023-04-30T03:14:50;32.60;;;7.13;;
73550;SDS011;61816;53.582;10.096;2023-04-30T03:17:16;33.22;;;7.05;;
73550;SDS011;61816;53.582;10.096;2023-04-30T03:19:41;27.40;;;7.07;;
73550;SDS011;61816;53.582;10.096;2023-04-30T03:22:07;31.48;;;6.55;;
73550;SDS011;61816;53.582;10.096;2023-04-30T03:24:32;21.98;;;5.93;;
73550;SDS011;61816;53.582;10.096;2023-04-30T03:26:57;23.33;;;6.75;;
73550;SDS011;61816;53.582;10.096;2023-04-30T03:29:23;32.90;;;6.63;;
73550;SDS011;61816;53.582;10.096;2023-04-30T03:31:48;21.30;;;6.32;;
73550;SDS011;61816;53.582;10.096;2023-04-30T03:34:13;27.40;;;6.93;;
73550;SDS011;61816;53.582;10.096;2023-04-30T03:36:39;22.88;;;6.45;;
73550;SDS011;61816;53.582;10.096;2023-04-30T03:39:04;24.92;;;7.07;;
73550;SDS011;61816;53.582;10.096;2023-04-30T03:41:30;22.85;;;6.43;;
73550;SDS011;61816;53.582;10.096;2023-04-30T03:43:55;20.90;;;6.18;;
73550;SDS011;61816;53.582;10.096;2023-04-30T03:46:20;28.38;;;7.03;;
73550;SDS011;61816;53.582;10.096;2023-04-30T03:48:46;33.03;;;7.22;;
73550;SDS011;61816;53.582;10.096;2023-04-30T03:51:11;32.35;;;7.45;;
73550;SDS011;61816;53.582;10.096;2023-04-30T03:53:37;19.30;;;6.80;;
73550;SDS011;61816;53.582;10.096;2023-04-30T03:56:02;34.95;;;7.78;;
73550;SDS011;61816;53.582;10.096;2023-04-30T03:58:29;30.73;;;7.13;;
73550;SDS011;61816;53.582;10.096;2023-04-30T04:00:54;32.65;;;8.23;;
73550;SDS011;61816;53.582;10.096;2023-04-30T04:03:19;20.65;;;6.38;;
73550;SDS011;61816;53.582;10.096;2023-04-30T04:05:45;28.45;;;7.05;;
73550;SDS011;61816;53.582;10.096;2023-04-30T04:08:11;31.70;;;7.45;;
73550;SDS011;61816;53.582;10.096;2023-04-30T04:10:37;33.53;;;6.75;;
73550;SDS011;61816;53.582;10.096;2023-04-30T04:13:03;26.90;;;6.60;;
73550;SDS011;61816;53.582;10.096;2023-04-30T04:15:28;25.42;;;7.13;;
73550;SDS011;61816;53.582;10.096;2023-04-30T04:17:53;33.78;;;6.85;;
73550;SDS011;61816;53.582;10.096;2023-04-30T04:20:19;33.45;;;7.97;;
73550;SDS011;61816;53.582;10.096;2023-04-30T04:22:44;32.53;;;8.15;;
73550;SDS011;61816;53.582;10.096;2023-04-30T04:25:09;24.17;;;7.32;;
73550;SDS011;61816;53.582;10.096;2023-04-30T04:27:35;26.98;;;6.40;;
73550;SDS011;61816;53.582;10.096;2023-04-30T04:30:01;25.60;;;6.85;;
73550;SDS011;61816;53.582;10.096;2023-04-30T04:32:27;22.58;;;6.97;;
73550;SDS011;61816;53.582;10.096;2023-04-30T04:34:54;29.17;;;6.60;;
73550;SDS011;61816;53.582;10.096;2023-04-30T04:37:21;25.15;;;6.53;;
73550;SDS011;61816;53.582;10.096;2023-04-30T04:39:46;21.02;;;6.50;;
73550;SDS011;61816;53.582;10.096;2023-04-30T04:42:12;25.17;;;7.93;;
73550;SDS011;61816;53.582;10.096;2023-04-30T04:44:38;26.02;;;7.53;;
73550;SDS011;61816;53.582;10.096;2023-04-30T04:47:05;20.60;;;6.22;;
73550;SDS011;61816;53.582;10.096;2023-04-30T04:49:30;30.48;;;7.10;;
73550;SDS011;61816;53.582;10.096;2023-04-30T04:51:56;30.25;;;7.10;;
73550;SDS011;61816;53.582;10.096;2023-04-30T04:54:21;25.92;;;7.00;;
73550;SDS011;61816;53.582;10.096;2023-04-30T04:56:46;27.25;;;6.53;;
73550;SDS011;61816;53.582;10.096;2023-04-30T04:59:12;18.95;;;7.00;;
73550;SDS011;61816;53.582;10.096;2023-04-30T05:01:37;28.10;;;6.53;;
73550;SDS011;61816;53.582;10.096;2023-04-30T05:04:03;27.52;;;6.20;;
73550;SDS011;61816;53.582;10.096;2023-04-30T05:06:28;20.73;;;6.57;;
73550;SDS011;61816;53.582;10.096;2023-04-30T05:08:54;24.02;;;5.72;;
73550;SDS011;61816;53.582;10.096;2023-04-30T05:11:20;26.00;;;6.72;;
73550;SDS011;61816;53.582;10.096;2023-04-30T05:13:46;22.25;;;6.35;;
73550;SDS011;61816;53.582;10.096;2023-04-30T05:16:11;26.75;;;6.47;;
73550;SDS011;61816;53.582;10.096;2023-04-30T05:18:36;27.33;;;7.13;;
73550;SDS011;61816;53.582;10.096;2023-04-30T05:21:02;24.30;;;7.28;;
73550;SDS011;61816;53.582;10.096;2023-04-30T05:23:28;19.75;;;6.07;;
73550;SDS011;61816;53.582;10.096;2023-04-30T05:25:53;17.80;;;5.68;;
73550;SDS011;61816;53.582;10.096;2023-04-30T05:28:19;29.25;;;6.40;;
73550;SDS011;61816;53.582;10.096;2023-04-30T05:30:44;26.45;;;6.25;;
73550;SDS011;61816;53.582;10.096;2023-04-30T05:33:10;28.35;;;6.30;;
73550;SDS011;61816;53.582;10.096;2023-04-30T05:35:35;26.77;;;6.32;;
73550;SDS011;61816;53.582;10.096;2023-04-30T05:38:01;23.83;;;5.80;;
73550;SDS011;61816;53.582;10.096;2023-04-30T05:40:27;27.33;;;6.05;;
73550;SDS011;61816;53.582;10.096;2023-04-30T05:42:53;32.33;;;6.20;;
73550;SDS011;61816;53.582;10.096;2023-04-30T05:45:18;27.05;;;6.30;;
73550;SDS011;61816;53.582;10.096;2023-04-30T05:47:43;26.23;;;7.32;;
73550;SDS011;61816;53.582;10.096;2023-04-30T05:50:09;22.40;;;5.93;;
73550;SDS011;61816;53.582;10.096;2023-04-30T05:52:34;23.65;;;5.65;;
73550;SDS011;61816;53.582;10.096;2023-04-30T05:55:00;18.73;;;5.93;;
73550;SDS011;61816;53.582;10.096;2023-04-30T05:57:25;28.10;;;5.78;;
73550;SDS011;61816;53.582;10.096;2023-04-30T05:59:51;28.90;;;5.80;;
73550;SDS011;61816;53.582;10.096;2023-04-30T06:02:16;25.90;;;5.70;;
73550;SDS011;61816;53.582;10.096;2023-04-30T06:04:41;22.50;;;5.43;;
73550;SDS011;61816;53.582;10.096;2023-04-30T06:07:07;18.75;;;4.95;;
73550;SDS011;61816;53.582;10.096;2023-04-30T06:09:32;21.05;;;5.05;;
73550;SDS011;61816;53.582;10.096;2023-04-30T06:11:58;27.15;;;5.22;;
73550;SDS011;61816;53.582;10.096;2023-04-30T06:14:23;23.05;;;4.30;;
73550;SDS011;61816;53.582;10.096;2023-04-30T06:16:49;17.65;;;3.95;;
73550;SDS011;61816;53.582;10.096;2023-04-30T06:19:15;22.38;;;4.45;;
73550;SDS011;61816;53.582;10.096;2023-04-30T06:21:40;23.20;;;5.07;;
73550;SDS011;61816;53.582;10.096;2023-04-30T06:24:08;23.02;;;5.13;;
73550;SDS011;61816;53.582;10.096;2023-04-30T06:26:33;37.92;;;4.85;;
73550;SDS011;61816;53.582;10.096;2023-04-30T06:28:59;13.80;;;3.22;;
73550;SDS011;61816;53.582;10.096;2023-04-30T06:31:24;21.60;;;3.97;;
73550;SDS011;61816;53.582;10.096;2023-04-30T06:33:50;12.85;;;4.43;;
73550;SDS011;61816;53.582;10.096;2023-04-30T06:36:16;24.52;;;4.75;;
73550;SDS011;61816;53.582;10.096;2023-04-30T06:38:42;23.15;;;4.88;;
73550;SDS011;61816;53.582;10.096;2023-04-30T06:41:08;24.98;;;4.47;;
73550;SDS011;61816;53.582;10.096;2023-04-30T06:43:33;22.42;;;4.35;;
73550;SDS011;61816;53.582;10.096;2023-04-30T06:45:59;16.27;;;3.72;;
73550;SDS011;61816;53.582;10.096;2023-04-30T06:48:25;12.57;;;3.67;;
73550;SDS011;61816;53.582;10.096;2023-04-30T06:50:50;19.75;;;4.15;;
73550;SDS011;61816;53.582;10.096;2023-04-30T06:53:15;17.85;;;3.88;;
73550;SDS011;61816;53.582;10.096;2023-04-30T06:55:41;18.23;;;3.83;;
73550;SDS011;61816;53.582;10.096;2023-04-30T06:58:07;12.55;;;3.40;;
73550;SDS011;61816;53.582;10.096;2023-04-30T07:00:33;24.05;;;4.07;;
73550;SDS011;61816;53.582;10.096;2023-04-30T07:02:58;17.05;;;3.65;;
73550;SDS011;61816;53.582;10.096;2023-04-30T07:05:26;20.83;;;3.67;;
73550;SDS011;61816;53.582;10.096;2023-04-30T07:07:52;20.73;;;4.03;;
73550;SDS011;61816;53.582;10.096;2023-04-30T07:10:18;11.88;;;3.70;;
73550;SDS011;61816;53.582;10.096;2023-04-30T07:12:43;15.88;;;3.83;;
73550;SDS011;61816;53.582;10.096;2023-04-30T07:15:09;24.42;;;3.42;;
73550;SDS011;61816;53.582;10.096;2023-04-30T07:17:34;14.38;;;3.58;;
73550;SDS011;61816;53.582;10.096;2023-04-30T07:20:01;19.63;;;4.00;;
73550;SDS011;61816;53.582;10.096;2023-04-30T07:22:28;22.90;;;4.30;;
73550;SDS011;61816;53.582;10.096;2023-04-30T07:24:54;13.13;;;3.33;;
73550;SDS011;61816;53.582;10.096;2023-04-30T07:27:19;16.13;;;4.05;;
73550;SDS011;61816;53.582;10.096;2023-04-30T07:29:45;17.33;;;4.10;;
73550;SDS011;61816;53.582;10.096;2023-04-30T07:32:10;18.92;;;3.10;;
73550;SDS011;61816;53.582;10.096;2023-04-30T07:34:35;13.27;;;3.70;;
73550;SDS011;61816;53.582;10.096;2023-04-30T07:37:01;21.52;;;4.07;;
73550;SDS011;61816;53.582;10.096;2023-04-30T07:39:27;16.80;;;4.53;;
73550;SDS011;61816;53.582;10.096;2023-04-30T07:41:53;21.27;;;6.07;;
73550;SDS011;61816;53.582;10.096;2023-04-30T07:44:18;14.23;;;3.90;;
73550;SDS011;61816;53.582;10.096;2023-04-30T07:46:43;16.52;;;3.78;;
73550;SDS011;61816;53.582;10.096;2023-04-30T07:49:09;18.85;;;3.80;;
73550;SDS011;61816;53.582;10.096;2023-04-30T07:51:34;16.55;;;4.22;;
73550;SDS011;61816;53.582;10.096;2023-04-30T07:54:00;18.95;;;4.30;;
73550;SDS011;61816;53.582;10.096;2023-04-30T07:56:25;12.13;;;3.30;;
73550;SDS011;61816;53.582;10.096;2023-04-30T07:58:51;14.45;;;3.70;;
73550;SDS011;61816;53.582;10.096;2023-04-30T08:01:16;17.58;;;3.88;;
73550;SDS011;61816;53.582;10.096;2023-04-30T08:03:41;11.40;;;3.78;;
73550;SDS011;61816;53.582;10.096;2023-04-30T08:06:07;16.33;;;3.72;;
73550;SDS011;61816;53.582;10.096;2023-04-30T08:08:32;12.60;;;4.32;;
73550;SDS011;61816;53.582;10.096;2023-04-30T08:11:00;12.10;;;3.47;;
73550;SDS011;61816;53.582;10.096;2023-04-30T08:13:27;16.60;;;3.85;;
73550;SDS011;61816;53.582;10.096;2023-04-30T08:15:52;21.45;;;4.75;;
73550;SDS011;61816;53.582;10.096;2023-04-30T08:18:18;15.05;;;4.07;;
73550;SDS011;61816;53.582;10.096;2023-04-30T08:20:44;12.35;;;3.40;;
73550;SDS011;61816;53.582;10.096;2023-04-30T08:23:09;11.77;;;3.25;;
73550;SDS011;61816;53.582;10.096;2023-04-30T08:25:35;17.60;;;4.47;;
73550;SDS011;61816;53.582;10.096;2023-04-30T08:28:01;20.85;;;3.20;;
73550;SDS011;61816;53.582;10.096;2023-04-30T08:30:27;17.50;;;3.20;;
73550;SDS011;61816;53.582;10.096;2023-04-30T08:32:52;20.73;;;3.92;;
73550;SDS011;61816;53.582;10.096;2023-04-30T08:35:18;15.45;;;3.47;;
73550;SDS011;61816;53.582;10.096;2023-04-30T08:37:45;20.92;;;3.58;;
73550;SDS011;61816;53.582;10.096;2023-04-30T08:40:11;16.92;;;4.25;;
73550;SDS011;61816;53.582;10.096;2023-04-30T08:42:40;15.85;;;3.42;;
73550;SDS011;61816;53.582;10.096;2023-04-30T08:45:10;12.55;;;3.05;;
73550;SDS011;61816;53.582;10.096;2023-04-30T08:47:36;12.75;;;2.50;;
73550;SDS011;61816;53.582;10.096;2023-04-30T08:50:03;14.45;;;3.65;;
73550;SDS011;61816;53.582;10.096;2023-04-30T08:52:30;29.25;;;3.65;;
73550;SDS011;61816;53.582;10.096;2023-04-30T08:54:58;13.20;;;3.63;;
73550;SDS011;61816;53.582;10.096;2023-04-30T08:57:25;22.10;;;3.55;;
73550;SDS011;61816;53.582;10.096;2023-04-30T08:59:51;14.40;;;3.10;;
73550;SDS011;61816;53.582;10.096;2023-04-30T09:02:16;19.70;;;4.50;;
73550;SDS011;61816;53.582;10.096;2023-04-30T09:04:42;15.25;;;3.30;;
73550;SDS011;61816;53.582;10.096;2023-04-30T09:07:07;15.98;;;4.75;;
73550;SDS011;61816;53.582;10.096;2023-04-30T09:09:37;12.95;;;3.45;;
73550;SDS011;61816;53.582;10.096;2023-04-30T09:12:10;14.82;;;3.72;;
73550;SDS011;61816;53.582;10.096;2023-04-30T09:14:40;14.15;;;3.45;;
73550;SDS011;61816;53.582;10.096;2023-04-30T09:17:06;19.63;;;4.03;;
73550;SDS011;61816;53.582;10.096;2023-04-30T09:19:35;10.57;;;3.35;;
73550;SDS011;61816;53.582;10.096;2023-04-30T09:22:20;14.13;;;3.95;;
73550;SDS011;61816;53.582;10.096;2023-04-30T09:24:48;10.48;;;3.47;;
73550;SDS011;61816;53.582;10.096;2023-04-30T09:27:18;21.15;;;3.75;;
73550;SDS011;61816;53.582;10.096;2023-04-30T09:29:45;20.42;;;4.63;;
73550;SDS011;61816;53.582;10.096;2023-04-30T09:32:10;16.17;;;3.50;;
73550;SDS011;61816;53.582;10.096;2023-04-30T09:34:36;9.77;;;3.45;;
73550;SDS011;61816;53.582;10.096;2023-04-30T09:37:02;17.75;;;4.03;;
73550;SDS011;61816;53.582;10.096;2023-04-30T09:39:28;24.30;;;3.72;;
73550;SDS011;61816;53.582;10.096;2023-04-30T09:42:05;14.13;;;3.28;;
73550;SDS011;61816;53.582;10.096;2023-04-30T09:44:35;17.60;;;4.30;;
73550;SDS011;61816;53.582;10.096;2023-04-30T09:47:01;21.92;;;3.40;;
73550;SDS011;61816;53.582;10.096;2023-04-30T09:49:27;14.52;;;3.33;;
73550;SDS011;61816;53.582;10.096;2023-04-30T09:51:56;10.15;;;3.85;;
73550;SDS011;61816;53.582;10.096;2023-04-30T09:54:30;17.85;;;4.07;;
73550;SDS011;61816;53.582;10.096;2023-04-30T09:56:57;21.35;;;3.53;;
73550;SDS011;61816;53.582;10.096;2023-04-30T09:59:32;21.58;;;3.88;;
73550;SDS011;61816;53.582;10.096;2023-04-30T10:02:04;12.18;;;3.15;;
73550;SDS011;61816;53.582;10.096;2023-04-30T10:04:34;19.48;;;3.53;;
73550;SDS011;61816;53.582;10.096;2023-04-30T10:07:08;21.88;;;3.95;;
73550;SDS011;61816;53.582;10.096;2023-04-30T10:09:39;12.55;;;4.22;;
73550;SDS011;61816;53.582;10.096;2023-04-30T10:12:15;12.32;;;3.35;;
73550;SDS011;61816;53.582;10.096;2023-04-30T10:14:51;13.65;;;3.10;;
73550;SDS011;61816;53.582;10.096;2023-04-30T10:17:21;14.20;;;3.50;;
73550;SDS011;61816;53.582;10.096;2023-04-30T10:19:51;10.68;;;3.25;;
73550;SDS011;61816;53.582;10.096;2023-04-30T10:22:21;24.20;;;3.72;;
73550;SDS011;61816;53.582;10.096;2023-04-30T10:24:47;10.90;;;3.38;;
73550;SDS011;61816;53.582;10.096;2023-04-30T10:27:14;13.52;;;3.50;;
73550;SDS011;61816;53.582;10.096;2023-04-30T10:29:39;15.00;;;3.10;;
73550;SDS011;61816;53.582;10.096;2023-04-30T10:32:06;11.82;;;3.05;;
73550;SDS011;61816;53.582;10.096;2023-04-30T10:39:55;12.40;;;3.33;;
73550;SDS011;61816;53.582;10.096;2023-04-30T10:42:21;13.82;;;3.30;;
73550;SDS011;61816;53.582;10.096;2023-04-30T10:44:46;14.65;;;4.15;;
73550;SDS011;61816;53.582;10.096;2023-04-30T10:47:12;12.55;;;3.67;;
73550;SDS011;61816;53.582;10.096;2023-04-30T10:49:44;9.55;;;3.33;;
73550;SDS011;61816;53.582;10.096;2023-04-30T10:52:12;14.95;;;3.35;;
73550;SDS011;61816;53.582;10.096;2023-04-30T10:54:37;11.98;;;3.08;;
73550;SDS011;61816;53.582;10.096;2023-04-30T10:57:07;9.27;;;2.72;;
73550;SDS011;61816;53.582;10.096;2023-04-30T10:59:35;10.73;;;3.05;;
73550;SDS011;61816;53.582;10.096;2023-04-30T11:02:01;13.27;;;3.42;;
73550;SDS011;61816;53.582;10.096;2023-04-30T11:04:27;16.55;;;3.47;;
73550;SDS011;61816;53.582;10.096;2023-04-30T11:09:40;13.68;;;2.90;;
73550;SDS011;61816;53.582;10.096;2023-04-30T11:12:14;13.93;;;3.83;;
73550;SDS011;61816;53.582;10.096;2023-04-30T11:14:44;10.45;;;3.30;;
73550;SDS011;61816;53.582;10.096;2023-04-30T11:17:11;14.60;;;3.35;;
73550;SDS011;61816;53.582;10.096;2023-04-30T11:19:46;15.90;;;3.97;;
73550;SDS011;61816;53.582;10.096;2023-04-30T11:25:02;10.23;;;3.38;;
73550;SDS011;61816;53.582;10.096;2023-04-30T11:27:39;10.45;;;2.95;;
73550;SDS011;61816;53.582;10.096;2023-04-30T11:30:16;12.15;;;2.95;;
73550;SDS011;61816;53.582;10.096;2023-04-30T11:32:44;7.97;;;3.35;;
73550;SDS011;61816;53.582;10.096;2023-04-30T11:35:12;10.32;;;3.20;;
73550;SDS011;61816;53.582;10.096;2023-04-30T11:37:41;20.45;;;3.30;;
73550;SDS011;61816;53.582;10.096;2023-04-30T11:40:11;6.15;;;2.92;;
73550;SDS011;61816;53.582;10.096;2023-04-30T11:42:38;16.98;;;4.22;;
73550;SDS011;61816;53.582;10.096;2023-04-30T11:47:39;12.63;;;3.58;;
73550;SDS011;61816;53.582;10.096;2023-04-30T11:50:10;13.48;;;3.22;;
73550;SDS011;61816;53.582;10.096;2023-04-30T11:52:37;9.32;;;3.20;;
73550;SDS011;61816;53.582;10.096;2023-04-30T11:55:07;13.68;;;3.10;;
73550;SDS011;61816;53.582;10.096;2023-04-30T11:57:44;8.27;;;3.00;;
73550;SDS011;61816;53.582;10.096;2023-04-30T12:00:17;15.20;;;3.75;;
73550;SDS011;61816;53.582;10.096;2023-04-30T12:02:45;11.13;;;2.50;;
73550;SDS011;61816;53.582;10.096;2023-04-30T12:05:13;9.00;;;2.90;;
73550;SDS011;61816;53.582;10.096;2023-04-30T12:07:46;12.93;;;3.20;;
73550;SDS011;61816;53.582;10.096;2023-04-30T12:10:15;9.93;;;3.40;;
73550;SDS011;61816;53.582;10.096;2023-04-30T12:12:43;13.55;;;4.40;;
73550;SDS011;61816;53.582;10.096;2023-04-30T12:15:09;11.52;;;3.78;;
73550;SDS011;61816;53.582;10.096;2023-04-30T12:17:42;11.93;;;2.90;;
73550;SDS011;61816;53.582;10.096;2023-04-30T12:20:08;10.40;;;3.28;;
73550;SDS011;61816;53.582;10.096;2023-04-30T12:22:35;13.48;;;3.42;;
73550;SDS011;61816;53.582;10.096;2023-04-30T12:25:07;10.57;;;3.58;;
73550;SDS011;61816;53.582;10.096;2023-04-30T12:27:38;9.75;;;3.25;;
73550;SDS011;61816;53.582;10.096;2023-04-30T12:30:10;13.65;;;6.13;;
73550;SDS011;61816;53.582;10.096;2023-04-30T12:32:44;15.25;;;4.43;;
73550;SDS011;61816;53.582;10.096;2023-04-30T12:35:16;7.43;;;2.65;;
73550;SDS011;61816;53.582;10.096;2023-04-30T12:37:45;9.55;;;3.45;;
73550;SDS011;61816;53.582;10.096;2023-04-30T12:40:19;12.63;;;3.60;;
73550;SDS011;61816;53.582;10.096;2023-04-30T12:43:01;12.88;;;3.00;;
73550;SDS011;61816;53.582;10.096;2023-04-30T12:48:27;6.95;;;3.05;;
73550;SDS011;61816;53.582;10.096;2023-04-30T12:51:07;8.07;;;2.70;;
73550;SDS011;61816;53.582;10.096;2023-04-30T12:53:34;10.20;;;2.75;;
73550;SDS011;61816;53.582;10.096;2023-04-30T12:56:11;10.23;;;3.45;;
73550;SDS011;61816;53.582;10.096;2023-04-30T12:58:40;11.90;;;3.53;;
73550;SDS011;61816;53.582;10.096;2023-04-30T13:01:19;6.70;;;3.28;;
73550;SDS011;61816;53.582;10.096;2023-04-30T13:03:50;10.23;;;3.08;;
73550;SDS011;61816;53.582;10.096;2023-04-30T13:06:20;15.50;;;3.95;;
73550;SDS011;61816;53.582;10.096;2023-04-30T13:08:47;14.55;;;3.20;;
73550;SDS011;61816;53.582;10.096;2023-04-30T13:11:13;7.68;;;2.88;;
73550;SDS011;61816;53.582;10.096;2023-04-30T13:13:40;14.10;;;3.58;;
73550;SDS011;61816;53.582;10.096;2023-04-30T13:16:07;15.35;;;3.33;;
73550;SDS011;61816;53.582;10.096;2023-04-30T13:18:37;10.40;;;3.72;;
73550;SDS011;61816;53.582;10.096;2023-04-30T13:21:02;13.93;;;3.00;;
73550;SDS011;61816;53.582;10.096;2023-04-30T13:23:28;10.38;;;3.53;;
73550;SDS011;61816;53.582;10.096;2023-04-30T13:25:55;8.07;;;3.05;;
73550;SDS011;61816;53.582;10.096;2023-04-30T13:28:23;10.02;;;3.30;;
73550;SDS011;61816;53.582;10.096;2023-04-30T13:30:49;8.00;;;3.20;;
73550;SDS011;61816;53.582;10.096;2023-04-30T13:33:14;10.98;;;2.92;;
73550;SDS011;61816;53.582;10.096;2023-04-30T13:35:40;17.27;;;3.00;;
73550;SDS011;61816;53.582;10.096;2023-04-30T13:38:06;14.98;;;3.30;;
73550;SDS011;61816;53.582;10.096;2023-04-30T13:40:41;11.35;;;3.47;;
73550;SDS011;61816;53.582;10.096;2023-04-30T13:43:07;10.23;;;3.42;;
73550;SDS011;61816;53.582;10.096;2023-04-30T13:45:33;20.23;;;3.90;;
73550;SDS011;61816;53.582;10.096;2023-04-30T13:48:00;19.00;;;3.72;;
73550;SDS011;61816;53.582;10.096;2023-04-30T13:50:26;6.97;;;2.67;;
73550;SDS011;61816;53.582;10.096;2023-04-30T13:52:57;10.88;;;3.20;;
73550;SDS011;61816;53.582;10.096;2023-04-30T13:55:26;9.68;;;3.15;;
73550;SDS011;61816;53.582;10.096;2023-04-30T13:57:52;9.52;;;3.22;;
73550;SDS011;61816;53.582;10.096;2023-04-30T14:00:23;7.88;;;2.90;;
73550;SDS011;61816;53.582;10.096;2023-04-30T14:02:49;10.57;;;3.08;;
73550;SDS011;61816;53.582;10.096;2023-04-30T14:05:15;8.77;;;3.22;;
73550;SDS011;61816;53.582;10.096;2023-04-30T14:07:43;9.15;;;3.53;;
73550;SDS011;61816;53.582;10.096;2023-04-30T14:10:11;8.85;;;3.65;;
73550;SDS011;61816;53.582;10.096;2023-04-30T14:12:37;11.00;;;3.25;;
73550;SDS011;61816;53.582;10.096;2023-04-30T14:15:07;8.77;;;3.15;;
73550;SDS011;61816;53.582;10.096;2023-04-30T14:17:33;16.00;;;4.25;;
73550;SDS011;61816;53.582;10.096;2023-04-30T14:20:00;10.30;;;3.22;;
73550;SDS011;61816;53.582;10.096;2023-04-30T14:22:26;12.50;;;3.45;;
73550;SDS011;61816;53.582;10.096;2023-04-30T14:24:54;13.93;;;4.80;;
73550;SDS011;61816;53.582;10.096;2023-04-30T14:27:20;11.38;;;3.58;;
73550;SDS011;61816;53.582;10.096;2023-04-30T14:29:47;13.23;;;4.13;;
73550;SDS011;61816;53.582;10.096;2023-04-30T14:32:14;9.98;;;3.42;;
73550;SDS011;61816;53.582;10.096;2023-04-30T14:34:40;9.88;;;3.65;;
73550;SDS011;61816;53.582;10.096;2023-04-30T14:37:05;9.80;;;3.85;;
73550;SDS011;61816;53.582;10.096;2023-04-30T14:39:34;11.38;;;3.90;;
73550;SDS011;61816;53.582;10.096;2023-04-30T14:42:00;8.55;;;3.10;;
73550;SDS011;61816;53.582;10.096;2023-04-30T14:44:27;12.57;;;3.72;;
73550;SDS011;61816;53.582;10.096;2023-04-30T14:46:53;6.65;;;3.03;;
73550;SDS011;61816;53.582;10.096;2023-04-30T14:49:21;9.27;;;4.15;;
73550;SDS011;61816;53.582;10.096;2023-04-30T14:51:47;9.45;;;3.63;;